Etusivu
METAR-TAF:

METAR-TAF

Lentoasemat :

Whitecourt, Alberta, Kanada

Leveyspiiri: 54-09N, Pituuspiiri: 115-47W, korkeus merenpinnasta: 783 m

Tämänhetkinen sää

Tämä raportti tehtiin 19 minuuttia sitten, kello 15.00 UTC
Tuuli 6 kn lännestä
Lämpötila 0°C
Kosteus 86%
Ilmanpaine 1010 hPa
Näkyvyys: 24.1 km
Muutamia pilviä 15000 ft:n korkeudessa
Hajonneita pilviä 20000 ft:n korkeudessa

METAR: CYZU 201500Z 28006KT 15SM FEW150 BKN200 M00/M02 A2983 RMK AC2CI5 SLP133

Aika: 08:19 (15:19 UTC)

Sääennuste

Tämä raportti tehtiin 1 tunti ja 4 minuuttia sitten, kello 14.15 UTC
Ennuste voimassa 20. päivästä klo 14 UTC - 20. päivään klo 23 UTC
Tuuli 3 kn eri suunnista
Näkyvyys: 10 km
Hajonneita pilviä 20000 ft:n korkeudessa

TAF: CYZU 201415Z 2014/2023 VRB03KT P6SM BKN200 RMK NXT FCST BY 201900Z

Säähavainnot ja -ennusteet yli 4000 lentoasemalta (METAR- ja TAF-raportit).

Käytössä olevat sääasemat on merkitty karttaan keltaisilla ja punaisilla pisteillä.

Aseta hiiri pisteen päälle nähdäksesi sääaseman nimen.

Klikkaa sitten nähdäksesi säähavainnot ja -ennusteet.

Kartan vaihtaminen: klikkaa mustalla rastilla varustettuja vihreitä pisteitä, niin voit zoomata sisään; viivalla varustettua vihreää pistettä, niin voit zoomata ulos tai vihreitä nuolia, niin pääset viereisille kartoille.


METAR-TAF: